createdAt,value
2022-09-28T00:00:26.870Z,46.3030
2022-09-28T00:01:29.312Z,46.2840
2022-09-28T00:02:31.647Z,46.3060
2022-09-28T00:03:31.639Z,46.2370
2022-09-28T00:04:33.994Z,46.2750
2022-09-28T00:05:34.151Z,46.2410
2022-09-28T00:06:36.482Z,46.1850
2022-09-28T00:07:38.746Z,46.1510
2022-09-28T00:08:41.047Z,46.1350
2022-09-28T00:09:43.308Z,46.0660
2022-09-28T00:10:45.647Z,46.0660
2022-09-28T00:11:45.841Z,46.1060
2022-09-28T00:12:48.107Z,46.1230
2022-09-28T00:13:50.368Z,46.0880
2022-09-28T00:14:52.657Z,46.1410
2022-09-28T00:15:54.982Z,46.0700
2022-09-28T00:16:57.266Z,46.0800
2022-09-28T00:17:59.526Z,46.0760
2022-09-28T00:19:01.829Z,46.1060
2022-09-28T00:20:01.990Z,46.1630
2022-09-28T00:21:04.265Z,46.1510
2022-09-28T00:22:06.584Z,46.1390
2022-09-28T00:23:08.890Z,46.0940
2022-09-28T00:24:11.193Z,46.0880
2022-09-28T00:25:13.512Z,46.0640
2022-09-28T00:26:13.681Z,46.0400
2022-09-28T00:27:16.117Z,46.0480
2022-09-28T00:28:18.373Z,46.0300
2022-09-28T00:29:20.722Z,45.9720
2022-09-28T00:30:23.078Z,46.0080
2022-09-28T00:31:23.390Z,46.0460
2022-09-28T00:32:25.684Z,46.1050
2022-09-28T00:33:28.010Z,46.1270
2022-09-28T00:34:30.374Z,46.1510
2022-09-28T00:35:32.742Z,46.1270
2022-09-28T00:36:32.894Z,46.0970
2022-09-28T00:37:35.275Z,46.0580
2022-09-28T00:38:37.558Z,46.0320
2022-09-28T00:39:39.908Z,46.0400
2022-09-28T00:40:42.231Z,46.0260
2022-09-28T00:41:42.317Z,46.0190
2022-09-28T00:42:44.642Z,46.0080
2022-09-28T00:43:46.943Z,45.9440
2022-09-28T00:44:49.282Z,45.9340
2022-09-28T00:45:51.639Z,45.9900
2022-09-28T00:46:53.964Z,46.0350
2022-09-28T00:47:54.208Z,46.0080
2022-09-28T00:48:56.435Z,45.9780
2022-09-28T00:49:58.703Z,45.9580
2022-09-28T00:51:00.989Z,45.9660
2022-09-28T00:52:03.261Z,45.9460
2022-09-28T00:53:05.663Z,45.8990
2022-09-28T00:54:05.786Z,45.9030
2022-09-28T00:55:08.126Z,45.9390
2022-09-28T00:56:10.456Z,45.9500
2022-09-28T00:57:12.752Z,46.0000
2022-09-28T00:58:15.123Z,46.0470
2022-09-28T00:59:17.545Z,46.0020
2022-09-28T01:00:17.589Z,45.9540
2022-09-28T01:01:19.957Z,45.9220
2022-09-28T01:02:22.262Z,45.8850
2022-09-28T01:03:24.601Z,45.9200
2022-09-28T01:04:29.818Z,45.9420
2022-09-28T01:05:29.141Z,45.9320
2022-09-28T01:06:29.307Z,45.8740
2022-09-28T01:07:31.583Z,45.7910
2022-09-28T01:08:33.888Z,45.8620
2022-09-28T01:09:36.196Z,45.7790
2022-09-28T01:10:38.438Z,45.7730
2022-09-28T01:11:40.759Z,45.7970
2022-09-28T01:12:43.090Z,45.7610
2022-09-28T01:13:43.292Z,45.7790
2022-09-28T01:14:45.611Z,45.8300
2022-09-28T01:15:47.890Z,45.8640
2022-09-28T01:16:50.264Z,45.8620
2022-09-28T01:17:52.487Z,45.8400
2022-09-28T01:18:52.652Z,45.8460
2022-09-28T01:19:54.972Z,45.9100
2022-09-28T01:20:57.270Z,45.8880
2022-09-28T01:21:59.559Z,45.8880
2022-09-28T01:23:01.746Z,45.8180
2022-09-28T01:24:04.009Z,45.8180
2022-09-28T01:25:06.243Z,45.7670
2022-09-28T01:26:08.504Z,45.8300
2022-09-28T01:27:08.615Z,45.8360
2022-09-28T01:28:10.892Z,45.8700
2022-09-28T01:29:13.224Z,45.8280
2022-09-28T01:30:15.408Z,45.8020
2022-09-28T01:31:17.700Z,45.8080
2022-09-28T01:32:19.895Z,45.7870
2022-09-28T01:34:11.736Z,45.8020
2022-09-28T01:35:14.031Z,45.8050
2022-09-28T01:36:16.287Z,45.7650
2022-09-28T01:37:16.476Z,45.8080
2022-09-28T01:38:18.780Z,45.8120
2022-09-28T01:39:21.105Z,45.8080
2022-09-28T01:40:23.491Z,45.7770
2022-09-28T01:41:25.741Z,45.7830
2022-09-28T01:42:28.061Z,45.7870
2022-09-28T01:43:28.233Z,45.7310
2022-09-28T01:44:30.551Z,45.6910
2022-09-28T01:45:32.988Z,45.6970
2022-09-28T01:46:35.181Z,45.7310
2022-09-28T01:47:37.455Z,45.6390
2022-09-28T01:48:39.726Z,45.6910
2022-09-28T01:49:39.855Z,45.7590
2022-09-28T01:50:42.171Z,45.7770
2022-09-28T01:51:44.430Z,45.8050
2022-09-28T01:52:46.770Z,45.8140
2022-09-28T01:53:49.065Z,45.7500
2022-09-28T01:54:51.376Z,45.7430
2022-09-28T01:55:53.722Z,45.7030
2022-09-28T01:56:53.850Z,45.6850
2022-09-28T01:57:56.169Z,45.7250
2022-09-28T01:58:58.492Z,45.7090
2022-09-28T02:00:00.755Z,45.7190
2022-09-28T02:01:03.231Z,45.7770
2022-09-28T02:02:05.432Z,45.7130
2022-09-28T02:03:05.548Z,45.6850
2022-09-28T02:04:07.834Z,45.7470
2022-09-28T02:05:10.123Z,45.7650
2022-09-28T02:06:12.439Z,45.7730
2022-09-28T02:07:14.705Z,45.7610
2022-09-28T02:08:17.026Z,45.7470
2022-09-28T02:09:17.311Z,45.7680
2022-09-28T02:10:19.412Z,45.7600
2022-09-28T02:11:21.751Z,45.8000
2022-09-28T02:12:24.025Z,45.7310
2022-09-28T02:13:26.358Z,45.6510
2022-09-28T02:14:28.716Z,45.6470
2022-09-28T02:15:28.906Z,45.5610
2022-09-28T02:16:31.385Z,45.5950
2022-09-28T02:17:33.523Z,45.6110
2022-09-28T02:18:35.848Z,45.6290
2022-09-28T02:19:38.193Z,45.6510
2022-09-28T02:20:40.525Z,45.6790
2022-09-28T02:21:40.729Z,45.7190
2022-09-28T02:22:42.984Z,45.7250
2022-09-28T02:23:45.278Z,45.6910
2022-09-28T02:24:47.485Z,45.7430
2022-09-28T02:25:49.719Z,45.7190
2022-09-28T02:26:52.023Z,45.6690
2022-09-28T02:27:54.325Z,45.6910
2022-09-28T02:28:54.509Z,45.7190
2022-09-28T02:29:56.848Z,45.6930
2022-09-28T02:30:59.203Z,45.7190
2022-09-28T02:32:01.560Z,45.7320
2022-09-28T02:33:03.862Z,45.7720
2022-09-28T02:34:04.058Z,45.7720
2022-09-28T02:35:06.407Z,45.7640
2022-09-28T02:36:08.754Z,45.7580
2022-09-28T02:37:11.136Z,45.7320
2022-09-28T02:38:13.421Z,45.7540
2022-09-28T02:39:15.741Z,45.7940
2022-09-28T02:40:15.939Z,45.7420
2022-09-28T02:41:18.204Z,45.6930
2022-09-28T02:42:20.570Z,45.6990
2022-09-28T02:43:22.873Z,45.6870
2022-09-28T02:44:25.197Z,45.7440
2022-09-28T02:45:25.449Z,45.6810
2022-09-28T02:46:27.746Z,45.6290
2022-09-28T02:47:30.096Z,45.6570
2022-09-28T02:49:00.101Z,45.6840
2022-09-28T02:49:34.749Z,45.7660
2022-09-28T02:50:34.845Z,45.7760
2022-09-28T02:51:37.161Z,45.6230
2022-09-28T02:52:39.500Z,45.5890
2022-09-28T02:53:41.773Z,45.5610
2022-09-28T02:54:44.054Z,45.5770
2022-09-28T02:55:46.245Z,45.5890
2022-09-28T02:56:48.527Z,45.5790
2022-09-28T02:57:50.809Z,45.5670
2022-09-28T02:58:50.866Z,45.6190
2022-09-28T02:59:53.092Z,45.5770
2022-09-28T03:00:55.305Z,45.5530
2022-09-28T03:01:57.517Z,45.6010
2022-09-28T03:02:59.707Z,45.6980
2022-09-28T03:04:01.933Z,45.6900
2022-09-28T03:05:04.169Z,45.6340
2022-09-28T03:06:06.409Z,45.6070
2022-09-28T03:07:08.693Z,45.5730
2022-09-28T03:08:11.044Z,45.5370
2022-09-28T03:09:13.362Z,45.5890
2022-09-28T03:10:13.488Z,45.5830
2022-09-28T03:11:15.782Z,45.6120
2022-09-28T03:12:18.084Z,45.6090
2022-09-28T03:13:20.403Z,45.5950
2022-09-28T03:14:22.670Z,45.5590
2022-09-28T03:15:24.971Z,45.5590
2022-09-28T03:16:25.234Z,45.5770
2022-09-28T03:17:27.456Z,45.5530
2022-09-28T03:18:29.763Z,45.5890
2022-09-28T03:19:32.046Z,45.6680
2022-09-28T03:20:34.360Z,45.7040
2022-09-28T03:21:36.649Z,45.7260
2022-09-28T03:22:36.793Z,45.7580
2022-09-28T03:23:39.117Z,45.7520
2022-09-28T03:24:41.382Z,45.7180
2022-09-28T03:25:43.750Z,45.6560
2022-09-28T03:26:45.891Z,45.6800
2022-09-28T03:27:48.140Z,45.6900
2022-09-28T03:28:50.402Z,45.6740
2022-09-28T03:29:52.657Z,45.6490
2022-09-28T03:31:29.430Z,45.6800
2022-09-28T03:32:31.507Z,45.6960
2022-09-28T03:33:33.783Z,45.6740
2022-09-28T03:34:36.046Z,45.6050
2022-09-28T03:35:38.241Z,45.6370
2022-09-28T03:36:40.483Z,45.6460
2022-09-28T03:37:42.727Z,45.7080
2022-09-28T03:38:44.993Z,45.7200
2022-09-28T03:39:45.140Z,45.6740
2022-09-28T03:40:47.532Z,45.5770
2022-09-28T03:41:49.709Z,45.5550
2022-09-28T03:42:51.967Z,45.6120
2022-09-28T03:43:54.200Z,45.6370
2022-09-28T03:44:56.509Z,45.6170
2022-09-28T03:45:58.857Z,45.6220
2022-09-28T03:47:01.106Z,45.6580
2022-09-28T03:48:01.249Z,45.6780
2022-09-28T03:49:03.553Z,45.6780
2022-09-28T03:50:05.916Z,45.6900
2022-09-28T03:51:08.189Z,45.6460
2022-09-28T03:52:10.472Z,45.6460
2022-09-28T03:53:12.791Z,45.6460
2022-09-28T03:54:12.957Z,45.6680
2022-09-28T03:55:15.335Z,45.7040
2022-09-28T03:56:17.656Z,45.6840
2022-09-28T03:57:19.967Z,45.6620
2022-09-28T03:58:22.316Z,45.6500
2022-09-28T03:59:22.494Z,45.6640
2022-09-28T04:00:27.010Z,45.7080
2022-09-28T04:00:37.794Z,45.7200
2022-09-28T04:01:40.175Z,45.8090
2022-09-28T04:02:42.370Z,45.7700
2022-09-28T04:03:42.532Z,45.7260
2022-09-28T04:04:44.868Z,45.6860
2022-09-28T04:05:47.232Z,45.6620
2022-09-28T04:06:49.550Z,45.6370
2022-09-28T04:07:51.890Z,45.6500
2022-09-28T04:08:54.241Z,45.6960
2022-09-28T04:09:54.397Z,45.7320
2022-09-28T04:10:56.717Z,45.7700
2022-09-28T04:12:03.972Z,45.7520
2022-09-28T04:13:01.367Z,45.8060
2022-09-28T04:14:03.713Z,45.7840
2022-09-28T04:15:06.053Z,45.7720
2022-09-28T04:16:06.272Z,45.7660
2022-09-28T04:17:08.552Z,45.8220
2022-09-28T04:18:10.878Z,45.8280
2022-09-28T04:19:13.293Z,45.8530
2022-09-28T04:20:15.555Z,45.9130
2022-09-28T04:21:15.666Z,45.8900
2022-09-28T04:22:17.811Z,45.9190
2022-09-28T04:23:20.005Z,45.9770
2022-09-28T04:24:22.208Z,45.9810
2022-09-28T04:25:24.411Z,45.9610
2022-09-28T04:26:26.643Z,46.0470
2022-09-28T04:27:28.848Z,46.1440
2022-09-28T04:28:31.060Z,46.1900
2022-09-28T04:29:33.308Z,46.2220
2022-09-28T04:30:35.555Z,46.2500
2022-09-28T04:31:37.899Z,46.2220
2022-09-28T04:32:40.052Z,46.2500
2022-09-28T04:33:40.162Z,46.2160
2022-09-28T04:34:44.349Z,46.2710
2022-09-28T04:35:44.611Z,46.2690
2022-09-28T04:36:46.876Z,46.2970
2022-09-28T04:37:49.091Z,46.2500
2022-09-28T04:38:53.606Z,46.2830
2022-09-28T04:39:53.594Z,46.3310
2022-09-28T04:40:55.918Z,46.3270
2022-09-28T04:41:58.126Z,46.2750
2022-09-28T04:43:00.360Z,46.3390
2022-09-28T04:44:00.449Z,46.4020
2022-09-28T04:45:02.682Z,46.4240
2022-09-28T04:46:04.992Z,46.4580
2022-09-28T04:47:07.177Z,46.4480
2022-09-28T04:48:09.389Z,46.4720
2022-09-28T04:49:11.641Z,46.5320
2022-09-28T04:50:13.876Z,46.5730
2022-09-28T04:51:16.128Z,46.5570
2022-09-28T04:52:18.813Z,46.5970
2022-09-28T04:53:20.647Z,46.6270
2022-09-28T04:54:20.749Z,46.6250
2022-09-28T04:55:22.949Z,46.6250
2022-09-28T04:56:25.206Z,46.6130
2022-09-28T04:57:27.538Z,46.5970
2022-09-28T04:58:29.885Z,46.6370
2022-09-28T04:59:32.168Z,46.6760
2022-09-28T05:00:34.504Z,46.6760
2022-09-28T05:01:36.882Z,46.7280
2022-09-28T05:02:37.078Z,46.7300
2022-09-28T05:03:39.338Z,46.6900
2022-09-28T05:04:41.624Z,46.6900
2022-09-28T05:05:43.951Z,46.6500
2022-09-28T05:06:46.323Z,46.5910
2022-09-28T05:07:48.706Z,46.6090
2022-09-28T05:08:51.057Z,46.7020
2022-09-28T05:09:53.410Z,46.7080
2022-09-28T05:10:55.763Z,46.6900
2022-09-28T05:11:55.967Z,46.6900
2022-09-28T05:12:58.356Z,46.7000
2022-09-28T05:14:00.712Z,46.6440
2022-09-28T05:15:03.067Z,46.6620
2022-09-28T05:16:05.814Z,46.6210
2022-09-28T05:17:05.636Z,46.6440
2022-09-28T05:18:08.030Z,46.5850
2022-09-28T05:19:10.369Z,46.3960
2022-09-28T05:20:12.617Z,45.9550
2022-09-28T05:21:14.847Z,45.7820
2022-09-28T05:22:14.965Z,45.7880
2022-09-28T05:23:17.117Z,46.1540
2022-09-28T05:24:19.347Z,46.3570
2022-09-28T05:25:21.598Z,46.3770
2022-09-28T05:26:23.835Z,46.3770
2022-09-28T05:27:26.057Z,46.3780
2022-09-28T05:28:28.350Z,46.3880
2022-09-28T05:29:32.440Z,46.4020
2022-09-28T05:30:32.854Z,46.3900
2022-09-28T05:31:35.147Z,46.3030
2022-09-28T05:32:37.289Z,46.2910
2022-09-28T05:33:37.419Z,46.2460
2022-09-28T05:34:39.669Z,46.2400
2022-09-28T05:35:41.964Z,46.2670
2022-09-28T05:36:44.254Z,46.2750
2022-09-28T05:37:46.508Z,46.2870
2022-09-28T05:38:48.782Z,46.3250
2022-09-28T05:39:48.895Z,46.2910
2022-09-28T05:40:51.199Z,46.2810
2022-09-28T05:41:51.281Z,46.2170
2022-09-28T05:42:53.564Z,46.2110
2022-09-28T05:43:55.895Z,46.2410
2022-09-28T05:44:58.178Z,46.2070
2022-09-28T05:46:00.637Z,46.1670
2022-09-28T05:47:02.757Z,46.1930
2022-09-28T05:48:05.048Z,46.2390
2022-09-28T05:49:06.230Z,46.2530
2022-09-28T05:50:08.448Z,46.4160
2022-09-28T05:50:18.199Z,46.4470
2022-09-28T05:51:20.497Z,46.4060
2022-09-28T05:52:22.797Z,46.3900
2022-09-28T05:53:25.130Z,46.3780
2022-09-28T05:54:27.439Z,46.3480
2022-09-28T05:55:29.908Z,46.3440
2022-09-28T05:56:29.963Z,46.3660
2022-09-28T05:57:32.279Z,46.3720
2022-09-28T05:58:34.607Z,46.3560
2022-09-28T05:59:36.989Z,46.3320
2022-09-28T06:00:39.316Z,46.3200
2022-09-28T06:01:39.527Z,46.3250
2022-09-28T06:02:41.785Z,46.3200
2022-09-28T06:03:44.043Z,46.3160
2022-09-28T06:04:46.341Z,46.3840
2022-09-28T06:05:48.591Z,46.3540
2022-09-28T06:06:50.849Z,46.3420
2022-09-28T06:07:53.104Z,46.1900
2022-09-28T06:08:55.358Z,46.1790
2022-09-28T06:09:55.496Z,46.2050
2022-09-28T06:10:57.724Z,46.2270
2022-09-28T06:11:59.977Z,46.2070
2022-09-28T06:13:02.247Z,46.2330
2022-09-28T06:14:04.479Z,46.1890
2022-09-28T06:15:06.760Z,46.2470
2022-09-28T06:16:09.040Z,46.2670
2022-09-28T06:17:11.228Z,46.2850
2022-09-28T06:18:13.461Z,46.2610
2022-09-28T06:19:15.692Z,46.2350
2022-09-28T06:20:15.799Z,46.2470
2022-09-28T06:21:18.046Z,46.2610
2022-09-28T06:22:20.302Z,46.2530
2022-09-28T06:23:22.567Z,46.2470
2022-09-28T06:24:24.768Z,46.2810
2022-09-28T06:25:27.029Z,46.2870
2022-09-28T06:26:29.229Z,46.2470
2022-09-28T06:27:31.515Z,46.2290
2022-09-28T06:28:33.774Z,46.2050
2022-09-28T06:29:33.850Z,46.1870
2022-09-28T06:30:36.129Z,46.1710
2022-09-28T06:31:38.381Z,46.1790
2022-09-28T06:32:40.627Z,46.1460
2022-09-28T06:33:42.891Z,46.1550
2022-09-28T06:34:45.166Z,46.2050
2022-09-28T06:35:47.480Z,46.2730
2022-09-28T06:36:49.747Z,46.3010
2022-09-28T06:37:49.836Z,46.2670
2022-09-28T06:38:52.078Z,46.2410
2022-09-28T06:39:54.361Z,46.2010
2022-09-28T06:40:56.671Z,46.2130
2022-09-28T06:41:58.870Z,46.2290
2022-09-28T06:43:01.182Z,46.2130
2022-09-28T06:44:03.491Z,46.2330
2022-09-28T06:45:05.802Z,46.2470
2022-09-28T06:46:06.053Z,46.2390
2022-09-28T06:47:08.284Z,46.1950
2022-09-28T06:48:10.541Z,46.2390
2022-09-28T06:49:16.160Z,46.2510
2022-09-28T06:50:15.141Z,46.2470
2022-09-28T06:51:17.430Z,46.2390
2022-09-28T06:52:19.695Z,46.2130
2022-09-28T06:53:19.899Z,46.1610
2022-09-28T06:54:22.250Z,46.2010
2022-09-28T06:55:24.602Z,46.2290
2022-09-28T06:56:31.945Z,46.2690
2022-09-28T06:57:27.166Z,46.3600
2022-09-28T06:58:29.513Z,46.3130
2022-09-28T06:59:31.877Z,46.3130
2022-09-28T07:00:34.224Z,46.3480
2022-09-28T07:01:36.663Z,46.4160
2022-09-28T07:02:36.876Z,46.4480
2022-09-28T07:03:39.031Z,46.4080
2022-09-28T07:04:41.310Z,46.3900
2022-09-28T07:05:43.585Z,46.3440
2022-09-28T07:06:45.903Z,46.3960
2022-09-28T07:07:48.154Z,46.3720
2022-09-28T07:09:05.691Z,46.3010
2022-09-28T07:09:54.648Z,46.3600
2022-09-28T07:10:52.923Z,46.3250
2022-09-28T07:11:55.162Z,46.2850
2022-09-28T07:12:57.383Z,46.2610
2022-09-28T07:13:59.649Z,46.2570
2022-09-28T07:15:01.974Z,46.3070
2022-09-28T07:16:04.262Z,46.2570
2022-09-28T07:17:13.626Z,46.2290
2022-09-28T07:18:06.811Z,46.3160
2022-09-28T07:19:09.103Z,46.3100
2022-09-28T07:20:18.665Z,46.3280
2022-09-28T07:21:26.669Z,46.3740
2022-09-28T07:22:19.115Z,46.4120
2022-09-28T07:23:19.578Z,46.4120
2022-09-28T07:24:18.869Z,46.3880
2022-09-28T07:25:21.109Z,46.3540
2022-09-28T07:26:24.738Z,46.3740
2022-09-28T07:27:28.763Z,46.3660
2022-09-28T07:28:26.037Z,46.3940
2022-09-28T07:29:28.357Z,46.3840
2022-09-28T07:30:30.805Z,46.3340
2022-09-28T07:31:33.051Z,46.2970
2022-09-28T07:32:33.241Z,46.2850
2022-09-28T07:33:35.613Z,46.3220
2022-09-28T07:34:37.922Z,46.3160
2022-09-28T07:35:40.227Z,46.3030
2022-09-28T07:36:42.505Z,46.2810
2022-09-28T07:37:43.110Z,46.2050
2022-09-28T07:38:45.023Z,46.2010
2022-09-28T07:39:47.384Z,46.2270
2022-09-28T07:40:49.708Z,46.2070
2022-09-28T07:41:54.382Z,46.2190
2022-09-28T07:42:52.181Z,46.2790
2022-09-28T07:43:54.547Z,46.2970
2022-09-28T07:44:56.905Z,46.2790
2022-09-28T07:45:59.253Z,46.3160
2022-09-28T07:47:01.466Z,46.3280
2022-09-28T07:48:42.554Z,46.3280
2022-09-28T07:49:44.673Z,46.3680
2022-09-28T07:50:46.930Z,46.3780
2022-09-28T07:51:49.207Z,46.3280
2022-09-28T07:52:51.483Z,46.2730
2022-09-28T07:53:53.766Z,46.2410
2022-09-28T07:54:53.895Z,46.2270
2022-09-28T07:55:56.174Z,46.2390
2022-09-28T07:56:58.498Z,46.2170
2022-09-28T07:58:00.786Z,46.1730
2022-09-28T07:59:03.096Z,46.1610
2022-09-28T08:00:05.362Z,46.1610
2022-09-28T08:01:07.798Z,46.1610
2022-09-28T08:02:07.845Z,46.1790
2022-09-28T08:03:10.066Z,46.2230
2022-09-28T08:04:12.397Z,46.2010
2022-09-28T08:05:14.669Z,46.2050
2022-09-28T08:06:16.993Z,46.2010
2022-09-28T08:07:23.485Z,46.1770
2022-09-28T08:08:21.532Z,46.2110
2022-09-28T08:09:21.658Z,46.2390
2022-09-28T08:10:23.979Z,46.2570
2022-09-28T08:11:26.180Z,46.2630
2022-09-28T08:12:28.446Z,46.2350
2022-09-28T08:13:30.735Z,46.2610
2022-09-28T08:14:33.003Z,46.2190
2022-09-28T08:15:35.267Z,46.2870
2022-09-28T08:17:37.644Z,46.3480
2022-09-28T08:18:39.911Z,46.3100
2022-09-28T08:19:42.217Z,46.3210
2022-09-28T08:20:48.061Z,46.3540
2022-09-28T08:21:44.613Z,46.4480
2022-09-28T08:22:46.932Z,46.4370
2022-09-28T08:23:47.436Z,46.4770
2022-09-28T08:24:49.445Z,46.5110
2022-09-28T08:25:51.738Z,46.4530
2022-09-28T08:26:54.037Z,46.4080
2022-09-28T08:27:56.339Z,46.3770
2022-09-28T08:28:56.500Z,46.4520
2022-09-28T08:29:58.793Z,46.4770
2022-09-28T08:31:01.142Z,46.4520
2022-09-28T08:32:03.363Z,46.4260
2022-09-28T08:33:05.659Z,46.4640
2022-09-28T08:34:07.967Z,46.4060
2022-09-28T08:35:10.379Z,46.3790
2022-09-28T08:36:10.361Z,46.3980
2022-09-28T08:37:12.658Z,46.4200
2022-09-28T08:38:14.955Z,46.4640
2022-09-28T08:39:17.252Z,46.4460
2022-09-28T08:40:19.663Z,46.4200
2022-09-28T08:41:21.855Z,46.4380
2022-09-28T08:42:22.010Z,46.4260
2022-09-28T08:43:24.286Z,46.3850
2022-09-28T08:44:26.567Z,46.4320
2022-09-28T08:45:29.005Z,46.3920
2022-09-28T08:46:31.236Z,46.4460
2022-09-28T08:47:33.409Z,46.4640
2022-09-28T08:48:35.567Z,46.4320
2022-09-28T08:49:37.732Z,46.3830
2022-09-28T08:50:39.922Z,46.3650
2022-09-28T08:51:42.060Z,46.3490
2022-09-28T08:52:44.211Z,46.4120
2022-09-28T08:53:46.375Z,46.3790
2022-09-28T08:54:48.543Z,46.4170
2022-09-28T08:55:50.717Z,46.4540
2022-09-28T08:56:52.909Z,46.4880
2022-09-28T08:57:55.157Z,46.4860
2022-09-28T08:58:57.381Z,46.5040
2022-09-28T08:59:59.648Z,46.5200
2022-09-28T09:01:01.947Z,46.5510
2022-09-28T09:02:04.230Z,46.5750
2022-09-28T09:04:13.138Z,46.5610
2022-09-28T09:05:15.335Z,46.5220
2022-09-28T09:06:18.597Z,46.4720
2022-09-28T09:07:19.912Z,46.4240
2022-09-28T09:08:22.152Z,46.4360
2022-09-28T09:09:24.459Z,46.4360
2022-09-28T09:10:26.767Z,46.4120
2022-09-28T09:11:29.071Z,46.4860
2022-09-28T09:12:29.212Z,46.4600
2022-09-28T09:13:31.518Z,46.4720
2022-09-28T09:14:33.823Z,46.4580
2022-09-28T09:15:36.122Z,46.4820
2022-09-28T09:16:38.502Z,46.5270
2022-09-28T09:17:40.752Z,46.6010
2022-09-28T09:18:40.928Z,46.6190
2022-09-28T09:19:43.232Z,46.5100
2022-09-28T09:20:45.497Z,46.6590
2022-09-28T09:21:47.789Z,46.8350
2022-09-28T09:22:49.972Z,46.8910
2022-09-28T09:23:52.209Z,46.9780
2022-09-28T09:24:54.487Z,47.0120
2022-09-28T09:25:56.801Z,47.0290
2022-09-28T09:26:56.922Z,47.0870
2022-09-28T09:27:59.225Z,47.0710
2022-09-28T09:29:01.537Z,47.1200
2022-09-28T09:30:03.812Z,47.1500
2022-09-28T09:31:06.166Z,47.1560
2022-09-28T09:32:08.463Z,47.0920
2022-09-28T09:33:10.749Z,47.1800
2022-09-28T09:34:11.016Z,47.2680
2022-09-28T09:35:13.239Z,47.2940
2022-09-28T09:36:15.562Z,47.3160
2022-09-28T09:37:17.962Z,47.2880
2022-09-28T09:38:20.211Z,47.3180
2022-09-28T09:39:20.386Z,47.3430
2022-09-28T09:40:22.757Z,47.4170
2022-09-28T09:41:25.045Z,47.3690
2022-09-28T09:42:27.332Z,47.5550
2022-09-28T09:43:31.703Z,47.6710
2022-09-28T09:44:31.958Z,47.7530
2022-09-28T09:45:32.078Z,47.8030
2022-09-28T09:46:34.333Z,47.8090
2022-09-28T09:47:36.628Z,47.9230
2022-09-28T09:48:38.878Z,47.8890
2022-09-28T09:49:41.157Z,47.8450
2022-09-28T09:50:43.451Z,47.8480
2022-09-28T09:51:45.723Z,47.8720
2022-09-28T09:52:47.989Z,47.7960
2022-09-28T09:53:48.035Z,47.7880
2022-09-28T09:54:50.304Z,47.8200
2022-09-28T09:55:52.527Z,47.8890
2022-09-28T09:56:54.783Z,47.8910
2022-09-28T09:57:57.056Z,47.9030
2022-09-28T09:58:59.279Z,47.8600
2022-09-28T10:00:01.574Z,47.8320
2022-09-28T10:01:03.906Z,47.8380
2022-09-28T10:02:09.857Z,47.8200
2022-09-28T10:03:06.229Z,47.8130
2022-09-28T10:04:07.360Z,47.9090
2022-09-28T10:05:09.576Z,47.9720
2022-09-28T10:06:11.844Z,48.0860
2022-09-28T10:07:14.100Z,48.2080
2022-09-28T10:08:16.438Z,48.2960
2022-09-28T10:09:18.782Z,48.4000
2022-09-28T10:10:20.842Z,48.4300
2022-09-28T10:11:23.110Z,48.4870
2022-09-28T10:12:25.348Z,48.5530
2022-09-28T10:13:27.674Z,48.5650
2022-09-28T10:14:29.882Z,48.4890
2022-09-28T10:15:30.033Z,48.5220
2022-09-28T10:16:32.368Z,48.5280
2022-09-28T10:17:34.681Z,48.6260
2022-09-28T10:18:36.960Z,48.5630
2022-09-28T10:19:37.060Z,48.5690
2022-09-28T10:20:39.383Z,48.5530
2022-09-28T10:21:41.711Z,48.5530
2022-09-28T10:22:44.061Z,48.5160
2022-09-28T10:23:46.443Z,48.5980
2022-09-28T10:24:48.708Z,48.6160
2022-09-28T10:25:48.884Z,48.5860
2022-09-28T10:26:51.207Z,48.5920
2022-09-28T10:27:53.550Z,48.5920
2022-09-28T10:28:55.876Z,48.6230
2022-09-28T10:29:58.119Z,48.6550
2022-09-28T10:31:00.524Z,48.5410
2022-09-28T10:32:02.723Z,48.5060
2022-09-28T10:33:02.906Z,48.5690
2022-09-28T10:34:05.250Z,48.4110
2022-09-28T10:35:07.442Z,48.3780
2022-09-28T10:36:09.701Z,48.3600
2022-09-28T10:37:09.870Z,48.4290
2022-09-28T10:38:12.197Z,48.4510
2022-09-28T10:39:14.498Z,48.4740
2022-09-28T10:40:16.862Z,48.4050
2022-09-28T10:41:19.091Z,48.3480
2022-09-28T10:42:21.403Z,48.2950
2022-09-28T10:43:23.724Z,48.2890
2022-09-28T10:44:26.061Z,48.3940
2022-09-28T10:45:28.263Z,48.3730
2022-09-28T10:46:30.608Z,48.3150
2022-09-28T10:47:30.645Z,48.3620
2022-09-28T10:48:32.873Z,48.2970
2022-09-28T10:49:35.179Z,48.2560
2022-09-28T10:50:37.400Z,48.2540
2022-09-28T10:51:39.651Z,48.3370
2022-09-28T10:52:41.891Z,48.2160
2022-09-28T10:53:44.141Z,48.2660
2022-09-28T10:54:46.375Z,48.2010
2022-09-28T10:55:48.591Z,48.1790
2022-09-28T10:56:50.838Z,48.0920
2022-09-28T10:57:53.055Z,48.0410
2022-09-28T10:58:55.314Z,48.0630
2022-09-28T10:59:55.467Z,48.0880
2022-09-28T11:00:57.690Z,48.0530
2022-09-28T11:01:59.934Z,48.0410
2022-09-28T11:03:02.222Z,47.9470
2022-09-28T11:04:04.406Z,47.9490
2022-09-28T11:05:06.692Z,48.0100
2022-09-28T11:06:08.921Z,47.9290
2022-09-28T11:07:12.474Z,47.9310
2022-09-28T11:08:13.392Z,47.9780
2022-09-28T11:09:15.650Z,47.9590
2022-09-28T11:10:17.840Z,47.9470
2022-09-28T11:11:19.960Z,47.9190
2022-09-28T11:12:22.125Z,47.9010
2022-09-28T11:13:24.285Z,47.9210
2022-09-28T11:14:26.570Z,47.8900
2022-09-28T11:15:28.754Z,47.9370
2022-09-28T11:16:31.044Z,47.8400
2022-09-28T11:17:33.217Z,47.8960
2022-09-28T11:18:35.459Z,47.8660
2022-09-28T11:20:27.979Z,47.6260
2022-09-28T11:21:27.161Z,47.4170
2022-09-28T11:22:27.226Z,47.2560
2022-09-28T11:23:29.493Z,47.1790
2022-09-28T11:24:31.743Z,47.1130
2022-09-28T11:25:34.036Z,47.0640
2022-09-28T11:26:36.317Z,47.0230
2022-09-28T11:27:38.506Z,47.0460
2022-09-28T11:28:40.726Z,46.9430
2022-09-28T11:29:42.959Z,46.9040
2022-09-28T11:30:45.252Z,46.9290
2022-09-28T11:31:45.280Z,46.9430
2022-09-28T11:32:47.476Z,46.8700
2022-09-28T11:33:49.653Z,46.9100
2022-09-28T11:34:59.443Z,46.8740
2022-09-28T11:35:54.105Z,46.9270
2022-09-28T11:36:59.650Z,46.8230
2022-09-28T11:37:58.476Z,46.8820
2022-09-28T11:39:00.689Z,46.9200
2022-09-28T11:40:02.901Z,46.9200
2022-09-28T11:41:05.185Z,46.7610
2022-09-28T11:42:07.329Z,46.8880
2022-09-28T11:43:10.668Z,46.8580
2022-09-28T11:44:11.773Z,46.8640
2022-09-28T11:45:13.987Z,46.8210
2022-09-28T11:46:16.316Z,46.8330
2022-09-28T11:47:16.277Z,46.7950
2022-09-28T11:48:18.506Z,46.7730
2022-09-28T11:49:20.685Z,46.7430
2022-09-28T11:50:24.537Z,46.7470
2022-09-28T11:51:25.205Z,46.7060
2022-09-28T11:52:27.480Z,46.7060
2022-09-28T11:53:29.745Z,46.7120
2022-09-28T11:54:31.964Z,46.6860
2022-09-28T11:55:34.263Z,46.5860
2022-09-28T11:56:34.443Z,46.5660
2022-09-28T11:57:36.729Z,46.5640
2022-09-28T11:58:38.979Z,46.5540
2022-09-28T11:59:41.262Z,46.4920
2022-09-28T12:00:43.513Z,46.4980
2022-09-28T12:01:45.787Z,46.4460
2022-09-28T12:02:48.228Z,46.4370
2022-09-28T12:03:50.511Z,46.4460
2022-09-28T12:04:50.445Z,46.3970
2022-09-28T12:05:52.673Z,46.4150
2022-09-28T12:06:54.964Z,46.3650
2022-09-28T12:07:57.229Z,46.4230
2022-09-28T12:08:59.424Z,46.4110
2022-09-28T12:10:01.663Z,46.4370
2022-09-28T12:11:03.887Z,46.4430
2022-09-28T12:12:06.148Z,46.4780
2022-09-28T12:13:08.510Z,46.4580
2022-09-28T12:14:10.603Z,46.4330
2022-09-28T12:15:12.844Z,46.4430
2022-09-28T12:16:32.677Z,46.4170
2022-09-28T12:17:19.840Z,46.4680
2022-09-28T12:18:17.473Z,46.4580
2022-09-28T12:19:19.774Z,46.4490
2022-09-28T12:20:21.789Z,46.4510
2022-09-28T12:21:23.974Z,46.4230
2022-09-28T12:22:26.204Z,46.4460
2022-09-28T12:23:28.465Z,46.4390
2022-09-28T12:24:30.728Z,46.5090
2022-09-28T12:25:32.995Z,46.5090
2022-09-28T12:26:37.336Z,46.5030
2022-09-28T12:27:35.314Z,46.4900
2022-09-28T12:28:37.577Z,46.5070
2022-09-28T12:29:39.781Z,46.5370
2022-09-28T12:30:42.104Z,46.5430
2022-09-28T12:31:44.322Z,46.5190
2022-09-28T12:32:46.501Z,46.4310